Pagrindinis puslapis
METAR-TAF:

METAR-TAF

Oro uostai :

Džida, Saudo Arabija

platuma: 21-42N, ilguma: 039-11E, Aukštis: 15 m

Dabartinis oras

Ataskaita buvo paskelbta 1 valandą ir 26 minutes, ne 22:00 UTC
Vėjas 5 kt iš Šiaurės Vakarų
Temperatūra 30°C
Drėgmė 75%
Slėgis 1005 hPa
Matomumas 10 km arba daugiau
Mažai debesys ne aukštis 4000 ft

METAR: OEJN 242200Z 31005KT 9999 FEW040 30/25 Q1005 NOSIG

Laikas: 02:26 (23:26 UTC)

Prognozė

Ataskaita buvo paskelbta 6 valandos ir 26 minutes, ne 17:00 UTC
Prognozė galioja nuo 24 metu 18 UTC su 25 metu 24 UTC
Vėjas 3 kt nuo kintamojo kryptimis
Matomumas: 7000 m
Išsisklaidę debesys ne aukštis 4000 ft
Tapsmas
nuo 25 metu 06 UTC su 25 metu 08 UTC
Vėjas 10 kt iš Vakarų
Matomumas 10 km arba daugiau
Mažai debesys ne aukštis 4000 ft
Tapsmas
nuo 25 metu 18 UTC su 25 metu 20 UTC
Vėjas 10 kt iš Šiaurės/Šiaurės Rytų

TAF: OEJN 241700Z 2418/2524 VRB03KT 7000 SCT040 BECMG 2506/2508 26010KT 9999 FEW040 BECMG 2518/2520 02010KT

Orai ataskaitas ir orų prognozės (METAR, TAF).

turimą stotys yra geltonos ir raudonos taškus žemėlapyje.

Perkelti pele per norėdami pamatyti stoties vardą.

Tada spustelėkite, norėdami matyti oro stebėjimo ir prognozės.

Norėdami pakeisti žemėlapį: spustelėkite ant žalios mygtukų su juodo kryžiaus žemyn,; žalią mygtuką su brūkšneliu, jei norite nutolinti; arba žalių rodyklių gretimoms žemėlapius.


METAR-TAF: